createdAt,value
2022-10-08T00:03:17.197Z,13.60
2022-10-08T00:08:20.121Z,13.65
2022-10-08T00:13:23.342Z,13.68
2022-10-08T00:18:30.119Z,13.61
2022-10-08T00:23:34.245Z,13.58
2022-10-08T00:28:38.750Z,13.57
2022-10-08T00:33:43.205Z,13.61
2022-10-08T00:38:45.849Z,13.58
2022-10-08T00:43:50.745Z,13.58
2022-10-08T00:48:56.847Z,13.57
2022-10-08T00:53:59.957Z,13.56
2022-10-08T00:59:03.485Z,13.54
2022-10-08T01:04:08.131Z,13.53
2022-10-08T01:09:18.861Z,13.50
2022-10-08T01:14:32.409Z,13.49
2022-10-08T01:20:02.201Z,13.46
2022-10-08T01:25:31.747Z,13.41
2022-10-08T01:30:36.777Z,13.38
2022-10-08T01:35:44.465Z,13.34
2022-10-08T01:40:48.600Z,13.36
2022-10-08T01:45:57.005Z,13.36
2022-10-08T01:51:04.522Z,13.30
2022-10-08T01:56:10.529Z,13.33
2022-10-08T02:01:16.492Z,13.29
2022-10-08T02:06:20.228Z,13.29
2022-10-08T02:11:23.002Z,13.26
2022-10-08T02:16:29.738Z,13.22
2022-10-08T02:21:32.702Z,13.21
2022-10-08T02:26:40.410Z,13.19
2022-10-08T02:31:47.597Z,13.14
2022-10-08T02:36:55.821Z,13.07
2022-10-08T02:42:01.362Z,13.03
2022-10-08T02:47:08.734Z,13.00
2022-10-08T02:52:11.679Z,13.00
2022-10-08T02:57:17.291Z,12.98
2022-10-08T03:02:27.748Z,13.00
2022-10-08T03:07:31.738Z,12.97
2022-10-08T03:12:35.448Z,12.94
2022-10-08T03:17:42.927Z,12.94
2022-10-08T03:22:45.903Z,12.94
2022-10-08T03:27:51.396Z,12.96
2022-10-08T03:32:55.435Z,12.94
2022-10-08T03:37:58.070Z,12.92
2022-10-08T03:43:00.678Z,12.92
2022-10-08T03:48:04.893Z,12.91
2022-10-08T03:53:07.546Z,12.86
2022-10-08T03:58:10.381Z,12.88
2022-10-08T04:03:14.346Z,12.88
2022-10-08T04:08:17.242Z,12.83
2022-10-08T04:13:20.268Z,12.79
2022-10-08T04:18:24.172Z,12.79
2022-10-08T04:23:30.269Z,12.77
2022-10-08T04:28:38.192Z,12.82
2022-10-08T04:33:42.614Z,12.77
2022-10-08T04:38:45.808Z,12.75
2022-10-08T04:43:48.420Z,12.71
2022-10-08T04:48:53.889Z,12.65
2022-10-08T04:53:57.837Z,12.55
2022-10-08T04:59:00.701Z,12.54
2022-10-08T05:04:04.703Z,12.52
2022-10-08T05:09:07.280Z,12.53
2022-10-08T05:14:10.007Z,12.58
2022-10-08T05:19:14.055Z,12.59
2022-10-08T05:24:16.762Z,12.64
2022-10-08T05:29:19.959Z,12.67
2022-10-08T05:34:24.004Z,12.70
2022-10-08T05:39:27.666Z,12.74
2022-10-08T05:44:32.824Z,12.73
2022-10-08T05:49:38.825Z,12.73
2022-10-08T05:54:41.473Z,12.76
2022-10-08T05:59:44.235Z,12.80
2022-10-08T06:04:49.583Z,12.87
2022-10-08T06:09:52.645Z,12.89
2022-10-08T06:14:55.538Z,12.93
2022-10-08T06:19:59.469Z,12.97
2022-10-08T06:25:02.149Z,13.01
2022-10-08T06:30:05.589Z,13.05
2022-10-08T06:35:10.233Z,13.09
2022-10-08T06:40:12.842Z,13.13
2022-10-08T06:45:15.591Z,13.19
2022-10-08T06:50:19.555Z,13.27
2022-10-08T06:55:22.330Z,13.29
2022-10-08T07:00:24.966Z,13.33
2022-10-08T07:05:28.903Z,13.35
2022-10-08T07:10:33.679Z,13.42
2022-10-08T07:15:36.488Z,13.50
2022-10-08T07:20:40.579Z,13.53
2022-10-08T07:25:43.404Z,13.54
2022-10-08T07:30:46.020Z,13.58
2022-10-08T07:35:50.105Z,13.63
2022-10-08T07:40:54.757Z,13.64
2022-10-08T07:45:57.434Z,13.61
2022-10-08T07:51:09.078Z,13.70
2022-10-08T07:56:13.327Z,13.83
2022-10-08T08:01:20.299Z,13.93
2022-10-08T08:06:25.192Z,13.92
2022-10-08T08:11:27.908Z,13.98
2022-10-08T08:16:30.799Z,13.99
2022-10-08T08:21:36.497Z,14.07
2022-10-08T08:26:40.642Z,14.17
2022-10-08T08:31:45.107Z,14.24
2022-10-08T08:36:51.057Z,14.31
2022-10-08T08:42:01.287Z,14.43
2022-10-08T08:47:07.606Z,14.56
2022-10-08T08:52:14.626Z,14.71
2022-10-08T08:57:27.413Z,14.83
2022-10-08T09:02:33.230Z,14.92
2022-10-08T09:07:42.970Z,14.99
2022-10-08T09:12:45.897Z,15.08
2022-10-08T09:17:52.670Z,15.04
2022-10-08T09:22:57.206Z,15.11
2022-10-08T09:28:04.074Z,15.22
2022-10-08T09:33:26.502Z,15.46
2022-10-08T09:38:34.231Z,15.71
2022-10-08T09:43:37.069Z,15.68
2022-10-08T09:48:41.651Z,15.69
2022-10-08T09:53:48.270Z,15.68
2022-10-08T09:58:52.772Z,15.79
2022-10-08T10:03:57.363Z,15.96
2022-10-08T10:09:07.458Z,15.84
2022-10-08T10:14:21.530Z,16.10
2022-10-08T10:19:27.128Z,16.36
2022-10-08T10:24:39.799Z,16.78
2022-10-08T10:29:50.153Z,17.04
2022-10-08T10:34:59.866Z,17.13
2022-10-08T10:40:15.476Z,17.21
2022-10-08T10:45:21.806Z,17.12
2022-10-08T10:50:28.993Z,16.81
2022-10-08T10:55:38.317Z,16.59
2022-10-08T11:00:46.224Z,16.62
2022-10-08T11:05:52.820Z,16.60
2022-10-08T11:11:06.242Z,16.32
2022-10-08T11:16:19.554Z,15.95
2022-10-08T11:21:34.758Z,15.79
2022-10-08T11:26:42.078Z,15.77
2022-10-08T11:31:46.546Z,15.66
2022-10-08T11:36:55.948Z,15.48
2022-10-08T11:42:06.179Z,15.34
2022-10-08T11:47:36.273Z,15.22
2022-10-08T11:52:38.915Z,15.15
2022-10-08T11:58:06.709Z,14.97
2022-10-08T12:03:07.342Z,14.87
2022-10-08T12:08:10.150Z,14.83
2022-10-08T12:13:32.156Z,14.72
2022-10-08T12:18:52.654Z,14.63
2022-10-08T12:23:55.401Z,14.63
2022-10-08T12:28:59.500Z,14.65
2022-10-08T12:34:04.735Z,14.64
2022-10-08T12:39:12.732Z,14.63
2022-10-08T12:44:27.083Z,14.74
2022-10-08T12:49:34.591Z,14.91
2022-10-08T12:54:38.603Z,15.00
2022-10-08T12:59:42.924Z,15.20
2022-10-08T13:04:47.357Z,15.10
2022-10-08T13:09:55.693Z,14.97
2022-10-08T13:15:05.750Z,14.87
2022-10-08T13:20:15.395Z,14.84
2022-10-08T13:25:36.164Z,14.82
2022-10-08T13:30:40.512Z,14.89
2022-10-08T13:35:43.939Z,14.81
2022-10-08T13:40:50.654Z,14.93
2022-10-08T13:45:54.630Z,15.16
2022-10-08T13:50:57.528Z,15.52
2022-10-08T13:56:00.137Z,15.28
2022-10-08T14:01:04.192Z,15.47
2022-10-08T14:06:07.297Z,15.86
2022-10-08T14:11:10.834Z,15.79
2022-10-08T14:16:14.814Z,15.61
2022-10-08T14:21:17.753Z,15.38
2022-10-08T14:26:20.458Z,15.06
2022-10-08T14:31:24.432Z,15.03
2022-10-08T14:36:31.412Z,14.87
2022-10-08T14:41:34.660Z,14.67
2022-10-08T14:46:38.612Z,14.47
2022-10-08T14:51:41.621Z,14.40
2022-10-08T14:56:44.219Z,14.47
2022-10-08T15:01:48.286Z,14.54
2022-10-08T15:06:50.979Z,15.33
2022-10-08T15:11:53.592Z,17.82
2022-10-08T15:16:57.655Z,20.18
2022-10-08T15:22:00.284Z,22.52
2022-10-08T15:27:02.861Z,24.25
2022-10-08T15:32:06.848Z,24.26
2022-10-08T15:37:09.545Z,22.18
2022-10-08T15:42:12.900Z,18.26
2022-10-08T15:47:16.864Z,15.59
2022-10-08T15:52:22.086Z,14.70
2022-10-08T15:57:24.677Z,14.31
2022-10-08T16:02:28.664Z,14.04
2022-10-08T16:07:31.267Z,13.85
2022-10-08T16:12:33.849Z,13.77
2022-10-08T16:17:37.915Z,13.92
2022-10-08T16:22:40.614Z,13.84
2022-10-08T16:27:43.233Z,13.78
2022-10-08T16:32:47.429Z,13.75
2022-10-08T16:37:52.131Z,13.73
2022-10-08T16:42:55.027Z,13.67
2022-10-08T16:48:00.344Z,13.60
2022-10-08T16:53:03.136Z,13.53
2022-10-08T16:58:06.837Z,13.44
2022-10-08T17:03:10.797Z,13.36
2022-10-08T17:08:13.421Z,13.36
2022-10-08T17:13:16.095Z,13.40
2022-10-08T17:18:20.093Z,13.23
2022-10-08T17:23:22.906Z,13.11
2022-10-08T17:28:28.232Z,12.94
2022-10-08T17:33:35.657Z,12.82
2022-10-08T17:38:40.141Z,12.72
2022-10-08T17:43:43.208Z,12.60
2022-10-08T17:48:47.545Z,12.46
2022-10-08T17:53:53.952Z,12.40
2022-10-08T17:58:56.827Z,12.31
2022-10-08T18:04:02.222Z,12.22
2022-10-08T18:09:06.487Z,12.27
2022-10-08T18:14:09.134Z,12.26
2022-10-08T18:19:13.149Z,12.29
2022-10-08T18:24:16.132Z,12.42
2022-10-08T18:29:18.910Z,12.48
2022-10-08T18:34:23.564Z,12.58
2022-10-08T18:39:28.671Z,12.60
2022-10-08T18:44:31.638Z,12.51
2022-10-08T18:49:36.040Z,12.39
2022-10-08T18:54:38.865Z,12.24
2022-10-08T18:59:41.657Z,12.35
2022-10-08T19:04:45.922Z,12.43
2022-10-08T19:09:48.504Z,12.41
2022-10-08T19:14:51.174Z,12.32
2022-10-08T19:19:55.225Z,12.21
2022-10-08T19:24:57.974Z,11.92
2022-10-08T19:30:00.645Z,11.61
2022-10-08T19:35:05.353Z,11.46
2022-10-08T19:40:08.345Z,11.44
2022-10-08T19:45:12.466Z,11.40
2022-10-08T19:50:16.481Z,11.32
2022-10-08T19:55:19.133Z,11.16
2022-10-08T20:00:21.826Z,11.28
2022-10-08T20:05:25.757Z,11.55
2022-10-08T20:10:28.335Z,11.62
2022-10-08T20:15:30.902Z,11.57
2022-10-08T20:20:34.895Z,11.49
2022-10-08T20:25:37.661Z,11.41
2022-10-08T20:30:41.347Z,11.34
2022-10-08T20:35:45.321Z,11.28
2022-10-08T20:40:47.977Z,11.21
2022-10-08T20:45:50.704Z,11.16
2022-10-08T20:50:54.742Z,11.17
2022-10-08T20:55:57.496Z,11.20
2022-10-08T21:01:05.078Z,11.17
2022-10-08T21:06:09.721Z,11.10
2022-10-08T21:11:14.267Z,11.05
2022-10-08T21:16:19.461Z,10.99
2022-10-08T21:21:23.901Z,10.96
2022-10-08T21:26:28.988Z,10.88
2022-10-08T21:31:32.958Z,10.78
2022-10-08T21:36:39.498Z,10.73
2022-10-08T21:41:42.312Z,10.68
2022-10-08T21:46:45.252Z,10.61
2022-10-08T21:51:49.489Z,10.59
2022-10-08T21:56:52.134Z,10.56
2022-10-08T22:01:54.851Z,10.49
2022-10-08T22:06:59.536Z,10.45
2022-10-08T22:12:03.129Z,10.37
2022-10-08T22:17:05.777Z,10.28
2022-10-08T22:22:09.932Z,10.22
2022-10-08T22:27:12.633Z,10.15
2022-10-08T22:32:15.272Z,10.04
2022-10-08T22:37:19.287Z,10.01
2022-10-08T22:42:22.027Z,10.04
2022-10-08T22:47:25.070Z,10.04
2022-10-08T22:52:29.220Z,9.95
2022-10-08T22:57:31.846Z,9.87
2022-10-08T23:02:34.845Z,9.79
2022-10-08T23:07:38.982Z,9.77
2022-10-08T23:12:41.636Z,9.73
2022-10-08T23:17:44.307Z,9.73
2022-10-08T23:22:48.624Z,9.65
2022-10-08T23:27:51.699Z,9.61
2022-10-08T23:32:54.291Z,9.54
2022-10-08T23:37:58.301Z,9.50
2022-10-08T23:43:00.955Z,9.44
2022-10-08T23:48:03.527Z,9.41
2022-10-08T23:53:07.463Z,9.35
2022-10-08T23:58:10.184Z,9.31
